Time;durP1;ratioP1;P1;durP2;ratioP2;P2;SDS_P1;SDS_P2;PMS_P1;PMS_P2;Temp;Humidity;BMP_temperature;BMP_pressure;BME280_temperature;BME280_humidity;BME280_pressure;Samples;Min_cycle;Max_cycle;Signal;HPM_P1;HPM_P2
2023/03/21 00:00:34;;;;;;;26.80;19.83;;;;;;;7.80;82.75;101647.00;7394429;19;20010;-64
2023/03/21 00:03:00;;;;;;;24.90;18.25;;;;;;;7.86;82.25;101644.03;7395090;19;20009;-64
2023/03/21 00:05:25;;;;;;;24.80;18.92;;;;;;;7.82;82.35;101646.00;7394105;19;20002;-65
2023/03/21 00:07:51;;;;;;;26.70;19.38;;;;;;;7.82;82.65;101653.09;7394128;19;20542;-63
2023/03/21 00:10:23;;;;;;;25.88;19.13;;;;;;;7.85;82.17;101647.63;7393035;19;19994;-64
2023/03/21 00:12:57;;;;;;;27.23;19.58;;;;;;;7.73;82.85;101643.88;7395358;19;20015;-65
2023/03/21 00:15:25;;;;;;;22.13;17.98;;;;;;;7.82;82.46;101639.84;7393805;19;20070;-64
2023/03/21 00:17:53;;;;;;;25.83;18.67;;;;;;;7.80;82.58;101642.56;7394051;19;20013;-64
2023/03/21 00:20:19;;;;;;;24.70;17.92;;;;;;;7.80;82.56;101628.50;7395429;19;20069;-64
2023/03/21 00:22:45;;;;;;;23.85;17.42;;;;;;;7.77;82.72;101629.53;7395587;19;19999;-64
2023/03/21 00:25:10;;;;;;;22.17;16.88;;;;;;;7.76;82.62;101628.66;7392862;19;20479;-64
2023/03/21 00:27:36;;;;;;;23.85;17.08;;;;;;;7.78;82.73;101641.81;7393887;19;20003;-64
2023/03/21 00:30:04;;;;;;;22.65;17.52;;;;;;;7.78;82.73;101631.25;7394180;19;20012;-63
2023/03/21 00:32:29;;;;;;;23.85;18.67;;;;;;;7.75;82.77;101629.59;7395328;19;20062;-63
2023/03/21 00:34:55;;;;;;;24.08;16.67;;;;;;;7.81;82.91;101628.44;7392983;19;20003;-64
2023/03/21 00:37:27;;;;;;;24.50;17.52;;;;;;;7.77;83.02;101621.59;7393471;19;20040;-62
2023/03/21 00:39:53;;;;;;;22.60;17.05;;;;;;;7.83;82.68;101623.03;7394401;19;20074;-62
2023/03/21 00:42:18;;;;;;;24.15;18.33;;;;;;;7.82;82.69;101626.63;7393880;19;20317;-63
2023/03/21 00:44:44;;;;;;;24.15;18.35;;;;;;;7.85;82.66;101616.72;7393079;19;20478;-63
2023/03/21 00:47:13;;;;;;;22.27;16.73;;;;;;;7.88;82.62;101613.91;7391482;19;20008;-63
2023/03/21 00:49:38;;;;;;;22.15;16.98;;;;;;;7.87;82.65;101614.84;7394349;19;20010;-63
2023/03/21 00:52:07;;;;;;;25.33;18.42;;;;;;;7.87;82.72;101609.53;7393801;19;19998;-63
2023/03/21 00:54:33;;;;;;;21.85;17.38;;;;;;;7.90;82.59;101606.72;7393586;19;20462;-63
2023/03/21 00:57:00;;;;;;;23.50;18.17;;;;;;;7.88;82.77;101605.97;7393119;19;20058;-63
2023/03/21 00:59:26;;;;;;;24.13;17.73;;;;;;;7.88;82.61;101607.75;7394674;19;20522;-64
2023/03/21 01:01:52;;;;;;;24.33;16.75;;;;;;;7.93;82.86;101603.91;7393561;19;20019;-64
2023/03/21 01:04:18;;;;;;;20.45;16.15;;;;;;;7.89;82.61;101594.44;7393767;19;20003;-64
2023/03/21 01:06:43;;;;;;;24.60;18.58;;;;;;;7.89;82.79;101598.88;7389729;19;20003;-64
2023/03/21 01:09:20;;;;;;;26.00;18.45;;;;;;;7.89;82.63;101589.16;7391840;19;19990;-63
2023/03/21 01:11:47;;;;;;;23.15;18.48;;;;;;;7.83;82.87;101592.13;7394115;19;20045;-63
2023/03/21 01:14:14;;;;;;;22.42;17.40;;;;;;;7.84;83.19;101591.19;7393244;19;20019;-63
2023/03/21 01:16:40;;;;;;;25.30;19.08;;;;;;;7.77;83.17;101582.78;7392414;19;20339;-63
2023/03/21 01:19:07;;;;;;;25.63;18.77;;;;;;;7.83;82.96;101584.19;7388895;19;19991;-63
2023/03/21 01:21:33;;;;;;;24.83;18.40;;;;;;;7.87;82.93;101577.78;7393004;19;19998;-63
2023/03/21 01:23:58;;;;;;;22.88;17.52;;;;;;;7.84;83.04;101583.25;7392568;19;20116;-63
2023/03/21 01:26:24;;;;;;;22.52;16.70;;;;;;;7.84;83.12;101583.25;7390782;19;20415;-63
2023/03/21 01:28:50;;;;;;;23.90;17.95;;;;;;;7.84;83.06;101583.25;7390483;19;20001;-64
2023/03/21 01:31:17;;;;;;;24.58;18.02;;;;;;;7.85;83.20;101577.03;7390778;19;19999;-64
2023/03/21 01:33:43;;;;;;;23.55;17.58;;;;;;;7.91;83.04;101576.66;7392920;19;20006;-64
2023/03/21 01:36:15;;;;;;;24.02;17.40;;;;;;;7.88;82.98;101576.88;7389919;19;20772;-64
2023/03/21 01:38:41;;;;;;;24.23;17.05;;;;;;;7.94;83.14;101578.31;7390426;19;20652;-64
2023/03/21 01:41:17;;;;;;;22.10;17.33;;;;;;;7.91;82.94;101570.53;7392577;19;20002;-64
2023/03/21 01:43:42;;;;;;;23.02;17.20;;;;;;;7.90;82.99;101579.41;7391280;19;20007;-64
2023/03/21 01:46:36;;;;;;;26.35;19.35;;;;;;;7.86;83.27;101573.44;7390136;19;20002;-64
2023/03/21 01:49:26;;;;;;;26.05;19.08;;;;;;;7.82;83.62;101576.38;7390871;19;20006;-64
2023/03/21 01:52:01;;;;;;;25.30;18.73;;;;;;;7.89;83.30;101577.72;7393319;19;19995;-64
2023/03/21 01:54:31;;;;;;;24.90;19.55;;;;;;;7.86;83.22;101573.44;7390589;19;20003;-65
2023/03/21 01:57:00;;;;;;;25.73;19.83;;;;;;;7.84;83.51;101575.31;7387522;19;20006;-65
2023/03/21 01:59:33;;;;;;;26.10;19.33;;;;;;;7.90;83.20;101579.41;7391860;19;20006;-65
2023/03/21 02:02:06;;;;;;;28.10;20.52;;;;;;;7.86;83.57;101570.81;7391832;19;20002;-64
2023/03/21 02:04:36;;;;;;;28.55;19.45;;;;;;;7.82;83.68;101569.28;7392005;19;19998;-64
2023/03/21 02:07:34;;;;;;;26.90;18.65;;;;;;;7.83;84.24;101565.69;7390134;19;20020;-64
2023/03/21 02:10:03;;;;;;;31.05;20.63;;;;;;;7.80;84.03;101565.00;7391199;19;20010;-65
2023/03/21 02:12:30;;;;;;;33.47;20.63;;;;;;;7.83;83.86;101556.91;7391634;19;20014;-63
2023/03/21 02:14:56;;;;;;;30.10;20.48;;;;;;;7.86;83.74;101554.09;7390623;19;20006;-63
2023/03/21 02:17:31;;;;;;;29.88;20.25;;;;;;;7.92;83.30;101548.41;7388151;19;20494;-63
2023/03/21 02:20:11;;;;;;;30.75;20.30;;;;;;;7.95;83.61;101554.38;7391746;19;19999;-64
2023/03/21 02:22:55;;;;;;;30.08;21.77;;;;;;;7.82;83.96;101548.13;7390967;19;20006;-64
2023/03/21 02:25:45;;;;;;;28.67;20.75;;;;;;;7.80;84.52;101547.34;7389911;19;20002;-63
2023/03/21 02:28:19;;;;;;;29.65;20.70;;;;;;;7.86;83.74;101539.06;7389493;19;20019;-64
2023/03/21 02:31:07;;;;;;;29.83;21.75;;;;;;;7.90;84.07;101537.94;7388209;19;19995;-64
2023/03/21 02:33:57;;;;;;;30.23;19.98;;;;;;;7.94;83.65;101536.81;7391013;19;20002;-64
2023/03/21 02:36:32;;;;;;;29.05;20.25;;;;;;;7.90;84.01;101542.38;7390443;19;20022;-65
2023/03/21 02:39:22;;;;;;;33.20;21.60;;;;;;;7.89;83.98;101535.41;7389185;19;20026;-64
2023/03/21 02:41:57;;;;;;;33.53;22.10;;;;;;;7.90;83.87;101527.34;7390971;19;20006;-64
2023/03/21 02:44:30;;;;;;;32.92;21.08;;;;;;;7.89;84.03;101530.09;7389402;19;20003;-65
2023/03/21 02:47:06;;;;;;;34.00;21.73;;;;;;;7.92;83.91;101532.53;7388710;19;19999;-65
2023/03/21 02:49:40;;;;;;;32.53;22.75;;;;;;;7.87;84.10;101530.19;7389381;19;20475;-64
2023/03/21 02:52:11;;;;;;;35.63;22.58;;;;;;;7.88;83.98;101526.63;7390834;19;20026;-64
2023/03/21 02:54:37;;;;;;;33.03;22.25;;;;;;;7.89;84.34;101528.31;7388375;19;20019;-64
2023/03/21 02:57:04;;;;;;;34.63;23.88;;;;;;;7.87;84.24;101524.88;7390090;19;20339;-64
2023/03/21 02:59:31;;;;;;;41.05;24.83;;;;;;;7.87;84.55;101526.69;7387437;19;19998;-64
2023/03/21 03:01:58;;;;;;;33.72;22.50;;;;;;;7.89;84.33;101533.59;7388659;19;20483;-63
2023/03/21 03:04:26;;;;;;;35.45;23.65;;;;;;;7.89;84.37;101530.94;7385220;19;20522;-64
2023/03/21 03:07:11;;;;;;;35.20;21.88;;;;;;;7.96;84.19;101529.66;7384871;19;20058;-62
2023/03/21 03:10:01;;;;;;;34.47;21.45;;;;;;;7.91;84.31;101529.06;7395153;19;20007;-63
2023/03/21 03:13:05;;;;;;;37.70;23.33;;;;;;;7.98;84.07;101530.41;7398089;19;20074;-63
2023/03/21 03:15:56;;;;;;;32.50;22.67;;;;;;;7.99;83.92;101529.44;7396748;19;20005;-63
2023/03/21 03:18:40;;;;;;;35.30;22.15;;;;;;;7.99;83.86;101528.59;7394439;19;20333;-63
2023/03/21 03:21:18;;;;;;;33.60;22.60;;;;;;;7.89;84.74;101530.09;7397335;19;20002;-63
2023/03/21 03:23:54;;;;;;;35.30;22.88;;;;;;;7.89;84.32;101530.94;7396809;19;20068;-63
2023/03/21 03:26:26;;;;;;;33.28;21.42;;;;;;;7.90;84.61;101526.50;7394304;19;20009;-64
2023/03/21 03:28:56;;;;;;;35.20;21.85;;;;;;;7.92;84.65;101521.97;7394749;19;19999;-64
2023/03/21 03:31:31;;;;;;;37.88;23.42;;;;;;;7.96;84.34;101519.06;7395957;19;20002;-64
2023/03/21 03:34:02;;;;;;;34.75;22.88;;;;;;;7.99;84.24;101523.31;7396705;19;19999;-64
2023/03/21 03:36:37;;;;;;;34.53;22.83;;;;;;;8.01;84.50;101519.66;7395273;19;20010;-63
2023/03/21 03:39:07;;;;;;;38.47;23.20;;;;;;;7.98;84.22;101522.47;7394149;19;19997;-64
2023/03/21 03:41:40;;;;;;;33.20;22.08;;;;;;;7.99;84.32;101516.22;7394851;19;20328;-62
2023/03/21 03:44:07;;;;;;;31.58;22.63;;;;;;;8.00;84.47;101510.00;7396356;19;20007;-63
2023/03/21 03:46:43;;;;;;;30.85;21.48;;;;;;;8.02;84.42;101517.84;7394176;19;20003;-63
2023/03/21 03:49:16;;;;;;;37.20;23.52;;;;;;;7.98;84.58;101514.53;7394406;19;20003;-63
2023/03/21 03:51:57;;;;;;;39.13;24.03;;;;;;;7.96;84.70;101512.94;7396356;19;20002;-62
2023/03/21 03:54:28;;;;;;;35.05;23.23;;;;;;;8.00;84.68;101502.06;7395342;19;20247;-62
2023/03/21 03:56:55;;;;;;;35.47;24.25;;;;;;;7.96;84.75;101511.13;7395223;19;19998;-63
2023/03/21 03:59:24;;;;;;;38.47;24.65;;;;;;;7.96;84.83;101513.78;7396231;19;19999;-63
2023/03/21 04:01:50;;;;;;;39.83;24.23;;;;;;;7.96;84.69;101512.94;7395276;19;19998;-64
2023/03/21 04:04:15;;;;;;;41.80;25.73;;;;;;;7.93;85.19;101505.16;7396514;19;20006;-64
2023/03/21 04:06:50;;;;;;;40.67;25.85;;;;;;;7.95;84.92;101504.13;7393165;19;20462;-64
2023/03/21 04:09:16;;;;;;;39.50;26.00;;;;;;;7.95;84.92;101512.06;7394339;19;20486;-64
2023/03/21 04:11:42;;;;;;;36.80;23.40;;;;;;;7.92;85.21;101508.72;7392782;19;20031;-64
2023/03/21 04:14:08;;;;;;;39.67;24.77;;;;;;;8.01;84.98;101494.97;7395990;19;20459;-64
2023/03/21 04:16:34;;;;;;;35.83;25.45;;;;;;;8.01;84.71;101494.97;7394388;19;19999;-64
2023/03/21 04:18:59;;;;;;;36.67;24.70;;;;;;;7.98;84.91;101500.44;7390172;19;20415;-65
2023/03/21 04:21:26;;;;;;;39.85;25.88;;;;;;;7.93;85.26;101498.09;7392721;19;20034;-65
2023/03/21 04:23:53;;;;;;;39.10;25.42;;;;;;;7.88;85.72;101496.63;7394600;19;20006;-64
2023/03/21 04:26:21;;;;;;;38.78;24.73;;;;;;;7.92;85.33;101500.78;7393044;19;19995;-62
2023/03/21 04:28:47;;;;;;;41.22;25.85;;;;;;;7.86;85.51;101501.19;7392225;19;20006;-65
2023/03/21 04:31:13;;;;;;;41.38;25.88;;;;;;;7.96;85.24;101500.56;7394636;19;20321;-65
2023/03/21 04:33:38;;;;;;;44.58;26.10;;;;;;;7.97;85.26;101501.41;7394217;19;20018;-65
2023/03/21 04:36:08;;;;;;;40.90;25.05;;;;;;;8.03;84.67;101498.38;7393320;19;20006;-65
2023/03/21 04:38:35;;;;;;;39.03;25.17;;;;;;;8.05;84.96;101496.50;7391648;19;20021;-64
2023/03/21 04:41:02;;;;;;;44.10;27.50;;;;;;;7.99;84.99;101494.22;7393799;19;20006;-64
2023/03/21 04:43:27;;;;;;;46.17;27.15;;;;;;;8.05;84.94;101490.34;7394322;19;20507;-65
2023/03/21 04:45:54;;;;;;;47.40;26.88;;;;;;;8.09;84.57;101491.88;7391750;19;19994;-63
2023/03/21 04:48:23;;;;;;;42.55;25.95;;;;;;;8.10;84.79;101488.28;7393571;19;20447;-64
2023/03/21 04:50:50;;;;;;;50.60;29.30;;;;;;;8.08;84.49;101491.03;7393323;19;20487;-63
2023/03/21 04:53:16;;;;;;;51.28;28.23;;;;;;;8.06;84.99;101486.75;7393634;19;20014;-63
2023/03/21 04:55:41;;;;;;;48.55;28.23;;;;;;;8.11;84.62;101482.91;7393058;19;20006;-63
2023/03/21 04:58:07;;;;;;;52.08;28.38;;;;;;;8.06;84.78;101484.13;7390956;19;20099;-63
2023/03/21 05:00:36;;;;;;;59.60;30.33;;;;;;;8.01;84.99;101479.94;7394215;19;20017;-63
2023/03/21 05:03:07;;;;;;;49.00;27.10;;;;;;;8.01;85.10;101485.25;7394092;19;20013;-64
2023/03/21 05:05:37;;;;;;;52.25;28.10;;;;;;;8.11;84.66;101476.75;7392287;19;20005;-64
2023/03/21 05:08:03;;;;;;;49.15;26.95;;;;;;;8.11;84.58;101472.34;7392649;19;20011;-64
2023/03/21 05:10:29;;;;;;;53.70;29.60;;;;;;;8.04;84.75;101470.16;7392552;19;20025;-64
2023/03/21 05:12:54;;;;;;;51.92;29.50;;;;;;;8.02;85.01;101478.16;7393259;19;20070;-64
2023/03/21 05:15:20;;;;;;;53.05;30.13;;;;;;;8.06;84.99;101474.38;7392334;19;19994;-64
2023/03/21 05:17:47;;;;;;;53.33;28.42;;;;;;;8.08;84.81;101479.59;7392279;19;20015;-64
2023/03/21 05:20:16;;;;;;;52.97;28.02;;;;;;;8.14;84.55;101476.56;7392833;19;20526;-64
2023/03/21 05:22:44;;;;;;;53.92;28.67;;;;;;;8.11;84.73;101469.69;7392852;19;19999;-64
2023/03/21 05:25:12;;;;;;;46.20;24.48;;;;;;;8.10;84.43;101473.25;7391135;19;20022;-64
2023/03/21 05:27:43;;;;;;;47.65;27.98;;;;;;;8.09;84.71;101476.00;7390484;19;19995;-64
2023/03/21 05:30:17;;;;;;;45.20;26.98;;;;;;;8.11;84.69;101477.63;7392523;19;19995;-64
2023/03/21 05:32:42;;;;;;;49.20;28.38;;;;;;;8.13;84.70;101469.56;7393201;19;19998;-65
2023/03/21 05:35:09;;;;;;;51.28;27.65;;;;;;;8.14;84.52;101471.28;7392217;19;20400;-64
2023/03/21 05:37:34;;;;;;;52.47;26.73;;;;;;;8.15;84.24;101470.31;7391838;19;20007;-64
2023/03/21 05:40:00;;;;;;;51.63;27.17;;;;;;;8.13;84.25;101473.06;7393900;19;19997;-65
2023/03/21 05:42:25;;;;;;;55.38;27.77;;;;;;;8.12;84.50;101465.22;7392952;19;20015;-64
2023/03/21 05:44:51;;;;;;;47.72;27.17;;;;;;;8.13;84.39;101464.28;7389849;19;19986;-64
2023/03/21 05:47:17;;;;;;;48.75;27.38;;;;;;;8.13;84.37;101467.78;7390309;19;20070;-64
2023/03/21 05:49:43;;;;;;;48.80;26.70;;;;;;;8.17;84.14;101464.00;7392662;19;20532;-64
2023/03/21 05:52:09;;;;;;;47.63;26.17;;;;;;;8.21;83.97;101460.22;7392440;19;20035;-65
2023/03/21 05:54:35;;;;;;;46.80;25.50;;;;;;;8.25;83.56;101455.63;7391778;19;19999;-64
2023/03/21 05:57:01;;;;;;;51.53;26.27;;;;;;;8.22;83.63;101455.78;7392366;19;20022;-64
2023/03/21 05:59:27;;;;;;;47.80;25.85;;;;;;;8.14;84.26;101458.88;7391280;19;19999;-64
2023/03/21 06:01:52;;;;;;;46.60;24.95;;;;;;;8.16;84.04;101453.53;7393000;19;19999;-62
2023/03/21 06:04:18;;;;;;;53.92;28.50;;;;;;;8.18;84.00;101455.09;7391593;19;20472;-63
2023/03/21 06:06:43;;;;;;;54.00;26.63;;;;;;;8.19;83.93;101456.00;7390569;19;20344;-63
2023/03/21 06:09:09;;;;;;;48.50;25.67;;;;;;;8.25;83.96;101460.91;7390363;19;20002;-64
2023/03/21 06:11:37;;;;;;;48.83;26.08;;;;;;;8.27;83.55;101453.75;7389182;19;20007;-63
2023/03/21 06:14:02;;;;;;;50.65;25.63;;;;;;;8.31;83.45;101457.91;7390955;19;20487;-64
2023/03/21 06:16:28;;;;;;;54.15;26.02;;;;;;;8.29;83.68;101448.34;7391262;19;20015;-64
2023/03/21 06:18:54;;;;;;;54.55;26.50;;;;;;;8.33;83.39;101463.09;7388165;19;20851;-64
2023/03/21 06:21:20;;;;;;;54.45;26.15;;;;;;;8.30;83.54;101461.47;7391433;19;20006;-64
2023/03/21 06:23:46;;;;;;;54.30;26.48;;;;;;;8.32;83.42;101461.41;7391280;19;20058;-63
2023/03/21 06:26:12;;;;;;;46.45;24.77;;;;;;;8.31;83.67;101457.06;7386751;19;20505;-64
2023/03/21 06:28:38;;;;;;;48.20;25.27;;;;;;;8.39;83.11;101458.28;7390499;19;20003;-64
2023/03/21 06:31:04;;;;;;;51.97;25.75;;;;;;;8.33;83.50;101458.66;7390929;19;19994;-64
2023/03/21 06:33:29;;;;;;;46.95;24.40;;;;;;;8.35;83.33;101459.41;7389256;19;20352;-65
2023/03/21 06:36:02;;;;;;;48.83;24.88;;;;;;;8.36;83.23;101458.47;7387612;19;20001;-64
2023/03/21 06:38:27;;;;;;;49.95;26.23;;;;;;;8.38;83.09;101461.00;7389355;19;20006;-63
2023/03/21 06:40:53;;;;;;;47.58;25.63;;;;;;;8.44;82.79;101463.28;7390666;19;19995;-64
2023/03/21 06:43:18;;;;;;;44.42;24.30;;;;;;;8.45;82.84;101457.03;7378145;19;20483;-58
2023/03/21 06:45:44;;;;;;;47.40;25.10;;;;;;;8.56;82.38;101459.03;7390626;19;20462;-59
2023/03/21 06:48:11;;;;;;;41.00;23.83;;;;;;;8.56;82.38;101457.22;7388749;19;20475;-59
2023/03/21 06:50:36;;;;;;;42.58;22.95;;;;;;;8.54;82.16;101464.44;7390744;19;20003;-59
2023/03/21 06:53:02;;;;;;;45.38;24.33;;;;;;;8.60;82.02;101464.03;7388422;19;20010;-63
2023/03/21 06:55:27;;;;;;;41.40;22.27;;;;;;;8.57;82.22;101455.44;7389007;19;20009;-59
2023/03/21 06:57:56;;;;;;;46.80;23.90;;;;;;;8.65;81.99;101455.81;7389699;19;20369;-59
2023/03/21 07:00:22;;;;;;;40.50;23.30;;;;;;;8.64;81.91;101462.03;7391292;19;20007;-59
2023/03/21 07:02:48;;;;;;;41.00;22.50;;;;;;;8.59;82.27;101458.84;7386759;19;20007;-59
2023/03/21 07:05:15;;;;;;;46.13;23.10;;;;;;;8.55;82.39;101463.47;7389752;19;20029;-59
2023/03/21 07:07:41;;;;;;;40.72;21.85;;;;;;;8.65;82.05;101461.13;7390129;19;20003;-59
2023/03/21 07:10:07;;;;;;;40.65;22.20;;;;;;;8.64;82.25;101459.41;7390949;19;20493;-59
2023/03/21 07:12:34;;;;;;;34.92;21.35;;;;;;;8.70;81.98;101461.66;7388588;19;20003;-59
2023/03/21 07:15:01;;;;;;;39.33;21.75;;;;;;;8.73;81.64;101454.38;7389007;19;20009;-59
2023/03/21 07:17:27;;;;;;;37.13;21.00;;;;;;;8.74;81.82;101464.03;7389920;19;20010;-59
2023/03/21 07:19:53;;;;;;;32.22;21.05;;;;;;;8.68;82.18;101466.19;7389594;19;20014;-59
2023/03/21 07:22:18;;;;;;;35.38;20.00;;;;;;;8.74;81.82;101460.53;7389400;19;20111;-59
2023/03/21 07:24:47;;;;;;;36.63;21.92;;;;;;;8.63;82.44;101461.19;7388516;19;20522;-59
2023/03/21 07:27:24;;;;;;;31.48;20.13;;;;;;;8.67;82.05;101464.50;7387829;19;20011;-58
2023/03/21 07:29:50;;;;;;;32.38;20.17;;;;;;;8.63;82.42;101460.34;7389446;19;20011;-59
2023/03/21 07:32:15;;;;;;;30.73;19.38;;;;;;;8.70;81.95;101465.16;7388740;19;20394;-59
2023/03/21 07:34:41;;;;;;;32.65;20.08;;;;;;;8.76;81.66;101463.06;7389284;19;20328;-58
2023/03/21 07:37:06;;;;;;;32.63;19.80;;;;;;;8.72;82.05;101454.47;7389461;19;20007;-59
2023/03/21 07:39:33;;;;;;;32.75;19.23;;;;;;;8.68;82.13;101460.91;7389525;19;20040;-59
2023/03/21 07:41:59;;;;;;;33.38;19.70;;;;;;;8.74;82.02;101468.47;7387992;19;20078;-59
2023/03/21 07:44:26;;;;;;;34.33;18.77;;;;;;;8.74;81.98;101461.38;7389706;19;19999;-59
2023/03/21 07:46:51;;;;;;;33.88;20.25;;;;;;;8.76;81.71;101463.06;7386877;19;20003;-59
2023/03/21 07:49:17;;;;;;;35.13;21.35;;;;;;;8.82;81.75;101468.00;7389288;19;20003;-58
2023/03/21 07:51:42;;;;;;;32.63;19.00;;;;;;;8.77;81.70;101456.84;7388887;19;20003;-57
2023/03/21 07:54:08;;;;;;;33.50;19.08;;;;;;;8.77;81.60;101463.00;7390138;19;20018;-60
2023/03/21 07:56:33;;;;;;;30.65;17.42;;;;;;;8.81;81.63;101453.06;7398040;19;20019;-59
2023/03/21 07:58:59;;;;;;;31.20;17.65;;;;;;;8.85;81.42;101460.69;7398003;19;19995;-58
2023/03/21 08:01:25;;;;;;;29.92;18.48;;;;;;;8.90;81.39;101461.25;7397816;19;20030;-58
2023/03/21 08:03:52;;;;;;;32.45;17.95;;;;;;;8.84;81.70;101464.31;7399118;19;19998;-59
2023/03/21 08:06:22;;;;;;;31.60;18.55;;;;;;;8.94;81.26;101462.75;7395430;19;20005;-58
2023/03/21 08:08:47;;;;;;;32.85;18.08;;;;;;;8.94;81.45;101468.06;7397257;19;20002;-59
2023/03/21 08:11:13;;;;;;;32.67;18.92;;;;;;;8.86;81.57;101459.75;7397887;19;19991;-58
2023/03/21 08:13:39;;;;;;;28.75;17.92;;;;;;;8.98;81.45;101458.09;7397394;19;19991;-59
2023/03/21 08:16:05;;;;;;;32.30;17.95;;;;;;;9.04;80.92;101464.84;7396318;19;20002;-58
2023/03/21 08:18:31;;;;;;;28.52;18.15;;;;;;;8.96;81.43;101467.97;7398031;19;20022;-59
2023/03/21 08:20:57;;;;;;;30.73;18.77;;;;;;;8.89;81.58;101456.91;7396381;19;19990;-58
2023/03/21 08:23:24;;;;;;;33.08;18.15;;;;;;;8.95;81.51;101464.47;7392462;19;20505;-58
2023/03/21 08:25:53;;;;;;;31.00;18.42;;;;;;;9.08;80.89;101453.94;7395637;19;20079;-58
2023/03/21 08:28:20;;;;;;;31.90;18.48;;;;;;;9.09;80.77;101458.28;7395120;19;20035;-57
2023/03/21 08:30:46;;;;;;;36.90;20.00;;;;;;;9.02;81.40;101456.13;7394721;19;20002;-58
2023/03/21 08:33:12;;;;;;;31.90;19.17;;;;;;;9.05;81.23;101450.63;7395682;19;20022;-57
2023/03/21 08:35:38;;;;;;;30.77;18.30;;;;;;;8.98;81.68;101460.75;7395999;19;19991;-58
2023/03/21 08:38:04;;;;;;;31.90;18.25;;;;;;;8.97;81.90;101454.63;7396799;19;20506;-59
2023/03/21 08:40:30;;;;;;;29.45;17.95;;;;;;;9.04;81.46;101451.59;7392848;19;20007;-60
2023/03/21 08:42:56;;;;;;;29.23;17.95;;;;;;;9.01;81.56;101455.28;7389568;19;20021;-59
2023/03/21 08:45:22;;;;;;;32.05;18.20;;;;;;;9.06;81.64;101447.00;7394023;19;20006;-59
2023/03/21 08:47:48;;;;;;;31.85;16.98;;;;;;;9.15;81.21;101451.75;7394840;19;20495;-59
2023/03/21 08:50:20;;;;;;;28.92;17.27;;;;;;;9.19;81.18;101447.94;7394908;19;20007;-59
2023/03/21 08:52:45;;;;;;;30.05;18.20;;;;;;;9.18;80.94;101457.69;7392786;19;20005;-59
2023/03/21 08:55:12;;;;;;;27.88;16.58;;;;;;;9.17;81.43;101452.47;7393294;19;20058;-59
2023/03/21 08:57:37;;;;;;;33.53;17.95;;;;;;;9.24;80.54;101456.44;7395609;19;20017;-59
2023/03/21 09:00:10;;;;;;;28.60;17.33;;;;;;;9.23;80.96;101455.59;7393799;19;20346;-58
2023/03/21 09:02:35;;;;;;;29.40;16.05;;;;;;;9.15;81.41;101446.44;7393375;19;19999;-59
2023/03/21 09:05:01;;;;;;;26.17;15.90;;;;;;;9.13;81.36;101448.31;7392304;19;20009;-58
2023/03/21 09:07:26;;;;;;;26.45;15.85;;;;;;;9.16;81.40;101448.13;7390313;19;20475;-58
2023/03/21 09:09:52;;;;;;;26.25;16.52;;;;;;;9.15;81.31;101455.25;7392966;19;20022;-58
2023/03/21 09:12:18;;;;;;;26.85;16.45;;;;;;;9.09;81.66;101452.97;7393746;19;20014;-58
2023/03/21 09:14:44;;;;;;;26.25;15.45;;;;;;;9.06;81.70;101444.38;7392130;19;19998;-58
2023/03/21 09:17:10;;;;;;;24.08;15.75;;;;;;;9.14;81.71;101439.41;7393889;19;20544;-59
2023/03/21 09:19:37;;;;;;;24.30;15.10;;;;;;;9.14;81.86;101437.66;7394149;19;20532;-58
2023/03/21 09:22:16;;;;;;;24.77;15.07;;;;;;;9.15;81.69;101439.34;7392163;19;20515;-58
2023/03/21 09:24:45;;;;;;;21.95;14.43;;;;;;;9.21;81.63;101443.38;7393707;19;20029;-59
2023/03/21 09:27:10;;;;;;;21.38;14.25;;;;;;;9.26;81.46;101440.44;7392345;19;20001;-59
2023/03/21 09:29:36;;;;;;;22.88;13.38;;;;;;;9.31;81.12;101441.81;7394211;19;20002;-59
2023/03/21 09:32:03;;;;;;;21.45;12.93;;;;;;;9.31;80.87;101451.59;7390026;19;20002;-59
2023/03/21 09:34:28;;;;;;;22.55;13.55;;;;;;;9.29;80.63;101445.53;7393901;19;20028;-59
2023/03/21 09:36:56;;;;;;;20.85;13.27;;;;;;;9.26;81.09;101454.53;7392750;19;19998;-58
2023/03/21 09:39:22;;;;;;;19.75;12.77;;;;;;;9.21;81.07;101453.97;7393644;19;20058;-59
2023/03/21 09:42:10;;;;;;;23.52;12.45;;;;;;;9.32;80.58;101446.16;7390386;19;20694;-59
2023/03/21 09:44:54;;;;;;;17.27;11.43;;;;;;;9.44;80.13;101449.81;7391981;19;20023;-59
2023/03/21 09:47:24;;;;;;;18.80;11.82;;;;;;;9.44;79.95;101453.31;7392044;19;19999;-59
2023/03/21 09:49:58;;;;;;;18.05;11.23;;;;;;;9.41;80.30;101453.53;7393109;19;19998;-59
2023/03/21 09:52:31;;;;;;;18.17;11.15;;;;;;;9.42;79.71;101452.56;7391903;19;20006;-60
2023/03/21 09:54:57;;;;;;;18.27;10.80;;;;;;;9.37;80.21;101446.75;7392240;19;20002;-60
2023/03/21 09:57:35;;;;;;;17.48;11.05;;;;;;;9.51;79.65;101458.22;7392455;19;20483;-59
2023/03/21 10:00:15;;;;;;;21.20;10.95;;;;;;;9.43;79.86;101453.44;7393707;19;20006;-60
2023/03/21 10:02:48;;;;;;;18.10;11.43;;;;;;;9.46;80.17;101446.13;7392414;19;20007;-60
2023/03/21 10:05:23;;;;;;;20.50;12.90;;;;;;;9.52;80.01;101446.66;7391882;19;20002;-60
2023/03/21 10:08:03;;;;;;;23.10;12.77;;;;;;;9.62;80.18;101439.78;7390264;19;20505;-60
2023/03/21 10:10:34;;;;;;;21.65;12.25;;;;;;;9.57;80.38;101437.44;7393369;19;19998;-60
2023/03/21 10:12:59;;;;;;;21.45;11.77;;;;;;;9.57;80.74;101441.91;7390744;19;20014;-60
2023/03/21 10:15:26;;;;;;;21.23;11.65;;;;;;;9.73;80.30;101437.28;7389353;19;20003;-60
2023/03/21 10:18:06;;;;;;;20.92;12.10;;;;;;;9.69;80.78;101441.94;7389981;19;20002;-60
2023/03/21 10:20:33;;;;;;;20.52;10.70;;;;;;;9.64;80.75;101443.22;7390914;19;20006;-60
2023/03/21 10:23:03;;;;;;;18.08;11.13;;;;;;;9.53;81.33;101435.13;7390243;19;20014;-60
2023/03/21 10:25:58;;;;;;;21.45;11.40;;;;;;;9.46;82.11;101443.47;7389240;19;20003;-59
2023/03/21 10:28:27;;;;;;;18.80;11.93;;;;;;;9.46;81.87;101430.19;7390774;19;19998;-60
2023/03/21 10:30:57;;;;;;;23.58;13.27;;;;;;;9.52;82.12;101423.63;7392049;19;20010;-61
2023/03/21 10:33:26;;;;;;;20.23;11.57;;;;;;;9.56;81.86;101429.56;7389803;19;20011;-60
2023/03/21 10:36:01;;;;;;;24.67;11.40;;;;;;;9.59;81.66;101429.38;7390669;19;20042;-60
2023/03/21 10:38:27;;;;;;;18.98;11.18;;;;;;;9.59;81.64;101419.63;7392135;19;20014;-61
2023/03/21 10:40:53;;;;;;;20.17;11.52;;;;;;;9.56;81.75;101417.19;7391404;19;20366;-60
2023/03/21 10:43:24;;;;;;;20.63;11.48;;;;;;;9.60;81.90;101420.47;7389730;19;20458;-60
2023/03/21 10:45:50;;;;;;;18.83;10.13;;;;;;;9.66;81.57;101415.59;7388408;19;19995;-61
2023/03/21 10:48:16;;;;;;;17.70;9.68;;;;;;;9.69;81.60;101417.19;7390912;19;20006;-60
2023/03/21 10:50:44;;;;;;;18.17;10.65;;;;;;;9.55;81.89;101409.31;7391149;19;20002;-61
2023/03/21 10:53:17;;;;;;;17.85;10.65;;;;;;;9.48;82.37;101416.81;7389179;19;19999;-60
2023/03/21 10:55:45;;;;;;;22.55;10.57;;;;;;;9.48;82.76;101416.81;7390773;19;19995;-60
2023/03/21 10:58:26;;;;;;;18.55;11.23;;;;;;;9.43;82.99;101417.16;7390463;19;20011;-61
2023/03/21 11:00:57;;;;;;;17.83;10.52;;;;;;;9.49;82.90;101412.41;7391586;19;20007;-60
2023/03/21 11:03:31;;;;;;;18.90;10.20;;;;;;;9.63;82.37;101407.00;7387585;19;20010;-61
2023/03/21 11:06:10;;;;;;;19.50;10.50;;;;;;;9.73;82.02;101400.13;7387438;19;20339;-61
2023/03/21 11:08:50;;;;;;;20.35;10.73;;;;;;;9.65;82.04;101403.28;7388912;19;20009;-61
2023/03/21 11:11:27;;;;;;;20.40;10.25;;;;;;;9.60;82.26;101405.41;7391297;19;19995;-60
2023/03/21 11:14:05;;;;;;;19.67;10.10;;;;;;;9.59;82.25;101413.47;7388496;19;19998;-61
2023/03/21 11:16:38;;;;;;;21.23;10.65;;;;;;;9.67;82.24;101392.56;7389921;19;20002;-60
2023/03/21 11:19:26;;;;;;;19.73;10.68;;;;;;;9.71;81.95;101399.34;7388989;19;20384;-61
2023/03/21 11:21:52;;;;;;;19.65;9.60;;;;;;;9.78;81.65;101400.66;7389832;19;20005;-61
2023/03/21 11:24:18;;;;;;;16.33;9.35;;;;;;;9.83;81.21;101390.63;7390426;19;20033;-61
2023/03/21 11:26:48;;;;;;;17.92;10.00;;;;;;;9.89;81.37;101395.47;7387486;19;20020;-60